EW1736 Waihi NZ current weather conditions

sailwx.info

Wind from 350 at 2 knots gusting 6

Air temperature 23.3° C
Dewpoint 19.9° C

Last reported at 2020-Jan-26 06:54 UTC.
Time now 2020-Jan-26 08:03 UTC

Location: S 37°27' E 175°59'.
View on Google Maps.

See reports from other nearby stations

  
Tides and Currents Weather Stations Pressure Air Temp Water Temp Dewpoint Dewpoint Depression Visibility Wind Speed Wind Dir Waves Ship Positions
date/time (UTC)wind fromknots sea level pressurealtimeterstation pressurevisibilityair tempwater tempwave heightnotes
2020-Jan-26 06:54 350 2 gusting 6 23.3
2020-Jan-26 06:38 355 3 gusting 10 23.3
2020-Jan-26 06:23 043 5 gusting 10 23.3
2020-Jan-26 06:08 022 6 gusting 12 23.3
2020-Jan-26 05:53 021 6 gusting 11 23.3
2020-Jan-26 05:38 059 6 gusting 12 23.3
2020-Jan-26 05:31 032 6 gusting 12 23.3
2020-Jan-26 05:08 021 6 gusting 13 23.9
2020-Jan-26 04:53 024 9 gusting 15 23.9
2020-Jan-26 04:37 046 6 gusting 13 24.4
2020-Jan-26 04:23 355 8 gusting 13 24.4
2020-Jan-26 04:07 049 8 gusting 13 25.0
2020-Jan-26 03:53 059 10 gusting 15 24.4
2020-Jan-26 03:37 042 12 gusting 16 24.4
2020-Jan-26 03:23 055 12 gusting 17 24.4
2020-Jan-26 03:07 030 12 gusting 18 24.4
2020-Jan-26 02:53 046 9 gusting 14 25.0
2020-Jan-26 02:37 031 8 gusting 14 25.0
2020-Jan-26 02:23 053 8 gusting 14 25.0
2020-Jan-26 02:07 031 7 gusting 13 25.0
2020-Jan-26 01:53 052 6 gusting 12 25.6
2020-Jan-26 01:37 347 6 gusting 13 26.1
2020-Jan-26 01:23 029 7 gusting 13 25.6
2020-Jan-26 01:07 018 6 gusting 12 25.6
2020-Jan-26 00:52 059 6 gusting 12 25.6
2020-Jan-26 00:37 045 8 gusting 13 25.0
2020-Jan-26 00:22 057 8 gusting 12 25.0
2020-Jan-26 00:07 057 7 gusting 11 25.6
2020-Jan-25 23:52 051 7 gusting 10 25.0
2020-Jan-25 23:37 052 7 gusting 10 24.4
2020-Jan-25 23:22 040 7 gusting 9 25.0
2020-Jan-25 23:07 048 5 gusting 8 25.0
2020-Jan-25 22:52 083 0 gusting 6 24.4
2020-Jan-25 22:37 093 2 gusting 6 24.4
2020-Jan-25 22:22 059 4 gusting 8 25.0
2020-Jan-25 22:07 045 4 gusting 7 24.4
2020-Jan-25 21:52 045 3 gusting 7 24.4
2020-Jan-25 21:37 075 1 gusting 6 25.0
2020-Jan-25 21:22 088 0 gusting 4 25.0
2020-Jan-25 21:07 272 25.0
2020-Jan-25 20:52 233 0 gusting 4 24.4
2020-Jan-25 20:37 274 23.9
2020-Jan-25 20:22 284 23.3
2020-Jan-25 20:07 277 22.8
2020-Jan-25 19:52 279 22.2
2020-Jan-25 19:37 292 0 gusting 5 21.7
2020-Jan-25 19:22 275 3 gusting 6 21.1
2020-Jan-25 19:07 277 4 gusting 6 20.6
2020-Jan-25 18:52 275 3 gusting 5 20.0
2020-Jan-25 18:37 272 3 gusting 7 19.4
2020-Jan-25 18:22 278 5 gusting 8 19.4
2020-Jan-25 18:07 269 6 gusting 9 18.9
2020-Jan-25 17:52 287 6 gusting 9 18.9
2020-Jan-25 17:37 290 4 gusting 8 18.9
2020-Jan-25 17:22 281 3 gusting 6 18.9
2020-Jan-25 17:07 296 5 gusting 7 18.9
2020-Jan-25 16:52 265 5 gusting 6 18.9
2020-Jan-25 16:37 276 2 gusting 5 18.9
2020-Jan-25 16:22 273 1 gusting 6 18.9
2020-Jan-25 16:06 283 5 gusting 9 18.9
2020-Jan-25 15:51 288 4 gusting 7 18.9
2020-Jan-25 15:36 281 3 gusting 6 18.9
2020-Jan-25 15:21 286 5 gusting 7 18.9
2020-Jan-25 15:06 295 3 gusting 6 18.9
2020-Jan-25 14:51 290 2 gusting 6 19.4
2020-Jan-25 14:36 281 6 gusting 11 19.4
2020-Jan-25 14:21 273 19.4
2020-Jan-25 14:06 286 2 gusting 4 19.4
2020-Jan-25 13:51 289 2 gusting 4 19.4
2020-Jan-25 13:36 306 19.4
2020-Jan-25 13:21 271 2 gusting 6 20.0
2020-Jan-25 13:06 276 20.0
2020-Jan-25 12:50 292 20.0
2020-Jan-25 12:35 294 20.0
2020-Jan-25 12:20 287 20.0
2020-Jan-25 12:05 286 1 gusting 6 20.6
2020-Jan-25 11:50 303 4 gusting 6 20.6
2020-Jan-25 11:35 299 2 gusting 7 20.6
2020-Jan-25 11:20 300 3 gusting 6 20.6
2020-Jan-25 11:05 297 4 gusting 7 20.6
2020-Jan-25 10:50 288 3 gusting 8 21.1
2020-Jan-25 10:34 277 2 gusting 7 21.1
2020-Jan-25 10:20 293 4 gusting 7 21.1
2020-Jan-25 10:04 274 6 gusting 8 21.7
2020-Jan-25 09:50 302 6 gusting 10 21.7
2020-Jan-25 09:34 299 4 gusting 7 21.7
2020-Jan-25 09:19 315 4 gusting 8 22.2
2020-Jan-25 09:04 313 3 gusting 10 22.8
2020-Jan-25 08:49 279 9 gusting 13 22.8
2020-Jan-25 08:34 303 9 gusting 15 23.3
2020-Jan-25 08:19 272 10 gusting 17 23.9
2020-Jan-25 08:03 276 13 gusting 19 23.9
2020-Jan-25 07:49 277 13 gusting 19 24.4
2020-Jan-25 07:33 323 12 gusting 19 25.0
2020-Jan-25 07:19 289 12 gusting 18 25.0
2020-Jan-25 07:02 355 1 gusting 7 22.8
2020-Jan-25 06:49 005 4 gusting 11 22.8
2020-Jan-25 06:32 055 7 gusting 13 22.8
2020-Jan-25 06:19 050 9 gusting 14 22.8
2020-Jan-25 06:02 046 7 gusting 13 23.3
2020-Jan-25 05:49 065 7 gusting 13 23.3
2020-Jan-25 05:32 355 6 gusting 12 23.3
2020-Jan-25 05:19 036 6 gusting 13 23.3
2020-Jan-25 05:02 051 6 gusting 13 23.3
2020-Jan-25 04:49 018 6 gusting 13 23.9
2020-Jan-25 04:32 049 7 gusting 13 23.9
2020-Jan-25 04:19 041 7 gusting 13 24.4
2020-Jan-25 04:02 058 9 gusting 16 24.4
2020-Jan-25 03:49 046 7 gusting 13 24.4
2020-Jan-25 03:32 044 6 gusting 13 25.0
2020-Jan-25 03:18 051 7 gusting 14 24.4
2020-Jan-25 03:02 058 7 gusting 15 25.0
2020-Jan-25 02:48 023 6 gusting 13 25.0
2020-Jan-25 02:32 034 6 gusting 12 25.6
2020-Jan-25 02:18 043 7 gusting 13 25.6
2020-Jan-25 02:02 044 8 gusting 13 25.6
2020-Jan-25 01:48 032 9 gusting 12 25.6
2020-Jan-25 01:32 053 7 gusting 10 25.6
2020-Jan-25 01:18 060 6 gusting 9 26.1
2020-Jan-25 01:02 25.6
2020-Jan-25 00:48 061 5 gusting 10 25.6
2020-Jan-25 00:32 047 6 gusting 10 25.6
2020-Jan-25 00:18 055 7 gusting 10 25.6
2020-Jan-25 00:02 041 8 gusting 11 25.6
2020-Jan-24 23:48 057 9 gusting 12 24.4
2020-Jan-24 23:32 059 8 gusting 11 25.0
2020-Jan-24 23:18 046 8 gusting 12 25.0
2020-Jan-24 23:02 040 6 gusting 10 25.6
2020-Jan-24 22:48 340 26.7
2020-Jan-24 22:32 126 1 gusting 6 25.0
2020-Jan-24 22:18 224 25.6
2020-Jan-24 22:02 088 0 gusting 5 24.4
2020-Jan-24 21:47 059 0 gusting 6 24.4
2020-Jan-24 21:32 254 24.4
2020-Jan-24 21:17 161 0 gusting 4 23.9
2020-Jan-24 21:02 051 23.3
2020-Jan-24 20:47 049 22.8
2020-Jan-24 20:32 209 22.2
2020-Jan-24 20:17 257 4 gusting 7 21.7
2020-Jan-24 20:02 268 5 gusting 7 21.1
2020-Jan-24 19:47 281 6 gusting 8 20.6
2020-Jan-24 19:32 272 6 gusting 9 20.0
2020-Jan-24 19:17 284 4 gusting 6 19.4
2020-Jan-24 19:02 281 6 gusting 8 18.9
2020-Jan-24 18:47 261 7 gusting 10 18.3
2020-Jan-24 18:32 290 18.3
2020-Jan-24 18:17 279 4 gusting 6 17.8
2020-Jan-24 18:02 280 4 gusting 6 17.8
2020-Jan-24 17:47 295 4 gusting 8 17.2
2020-Jan-24 17:32 297 0 gusting 6 17.2
2020-Jan-24 17:17 290 0 gusting 4 17.2
2020-Jan-24 17:02 291 17.2
2020-Jan-24 16:47 294 17.2
2020-Jan-24 16:32 273 17.2
2020-Jan-24 16:17 280 3 gusting 4 17.8
2020-Jan-24 16:02 275 17.8
2020-Jan-24 15:47 254 17.8
2020-Jan-24 15:32 249 1 gusting 6 17.8
2020-Jan-24 15:16 272 17.8
2020-Jan-24 15:01 283 17.8
2020-Jan-24 14:46 284 17.8
2020-Jan-24 14:31 280 18.3
2020-Jan-24 14:16 294 18.3
2020-Jan-24 14:01 293 18.3
2020-Jan-24 13:46 296 18.3
2020-Jan-24 13:31 290 18.9
2020-Jan-24 13:16 290 18.9
2020-Jan-24 13:01 288 3 gusting 6 18.9
2020-Jan-24 12:46 290 19.4
2020-Jan-24 12:31 292 1 gusting 6 19.4
2020-Jan-24 12:16 277 0 gusting 5 19.4
2020-Jan-24 12:01 285 20.0
2020-Jan-24 11:46 252 0 gusting 6 20.0
2020-Jan-24 11:31 267 20.0
2020-Jan-24 11:16 267 20.0
2020-Jan-24 11:01 267 20.0
2020-Jan-24 10:46 300 20.6
2020-Jan-24 10:31 300 20.6
2020-Jan-24 10:16 300 21.1
2020-Jan-24 10:01 300 21.1
2020-Jan-24 09:46 300 21.7
2020-Jan-24 09:31 300 21.7
2020-Jan-24 09:16 297 22.8
2020-Jan-24 09:01 257 23.3
2020-Jan-24 08:46 254 0 gusting 4 23.3
2020-Jan-24 08:31 277 0 gusting 6 23.3
2020-Jan-24 08:16 233 3 gusting 8 23.3
2020-Jan-24 08:01 281 6 gusting 12 23.3